Time;durP1;ratioP1;P1;durP2;ratioP2;P2;SDS_P1;SDS_P2;PMS_P1;PMS_P2;Temp;Humidity;BMP_temperature;BMP_pressure;BME280_temperature;BME280_humidity;BME280_pressure;Samples;Min_cycle;Max_cycle;Signal;HPM_P1;HPM_P2
2024/03/13 00:01:37;0.00;0.00;0.62;0.00;0.00;0.62;9.20;8.27;;;22.50;23.80;;;;;;2263739;61;20368;-62
2024/03/13 00:04:21;0.00;0.00;0.62;0.00;0.00;0.62;10.30;8.17;;;22.40;23.80;;;;;;2263865;61;20399;-64
2024/03/13 00:07:06;0.00;0.00;0.62;0.00;0.00;0.62;8.47;7.10;;;22.40;23.80;;;;;;2263608;61;20897;-64
2024/03/13 00:09:53;0.00;0.00;0.62;0.00;0.00;0.62;8.70;7.80;;;22.40;23.80;;;;;;2263738;61;20363;-65
2024/03/13 00:12:38;0.00;0.00;0.62;0.00;0.00;0.62;9.00;8.07;;;22.40;23.80;;;;;;2263638;61;20340;-64
2024/03/13 00:15:23;0.00;0.00;0.62;0.00;0.00;0.62;7.60;6.73;;;22.40;23.80;;;;;;2263672;61;20395;-65
2024/03/13 00:18:09;0.00;0.00;0.62;0.00;0.00;0.62;11.00;8.10;;;22.40;23.80;;;;;;2263745;61;20372;-65
2024/03/13 00:20:53;0.00;0.00;0.62;0.00;0.00;0.62;9.40;8.07;;;22.40;23.80;;;;;;2263536;61;20422;-64
2024/03/13 00:23:38;0.00;0.00;0.62;0.00;0.00;0.62;8.60;7.70;;;22.40;23.80;;;;;;2263656;61;20432;-64
2024/03/13 00:26:22;0.00;0.00;0.62;0.00;0.00;0.62;8.20;6.93;;;22.40;23.80;;;;;;2262634;61;20388;-64
2024/03/13 00:29:08;0.00;0.00;0.62;0.00;0.00;0.62;7.93;7.00;;;22.40;23.80;;;;;;2323859;58;20385;-66
2024/03/13 00:31:53;0.00;0.00;0.62;0.00;0.00;0.62;7.93;7.10;;;22.40;23.80;;;;;;2257265;61;20353;-65
2024/03/13 00:34:39;0.00;0.00;0.62;0.00;0.00;0.62;8.50;7.17;;;22.40;23.80;;;;;;2260474;61;20353;-65
2024/03/13 00:37:24;0.00;0.00;0.62;0.00;0.00;0.62;8.90;7.23;;;22.40;23.80;;;;;;2496840;53;20419;-64
2024/03/13 00:40:11;0.00;0.00;0.62;0.00;0.00;0.62;8.03;6.63;;;22.40;23.80;;;;;;2257225;61;20392;-64
2024/03/13 00:42:55;0.00;0.00;0.62;0.00;0.00;0.62;7.37;6.63;;;22.40;23.80;;;;;;2261578;61;20523;-64
2024/03/13 00:45:40;0.00;0.00;0.62;0.00;0.00;0.62;8.47;7.37;;;22.40;23.80;;;;;;2261171;61;20970;-64
2024/03/13 00:48:26;0.00;0.00;0.62;0.00;0.00;0.62;7.33;6.63;;;22.40;23.80;;;;;;2264324;61;20341;-64
2024/03/13 00:51:12;0.00;0.00;0.62;0.00;0.00;0.62;6.90;6.20;;;22.40;23.80;;;;;;2264199;61;20364;-64
2024/03/13 00:53:57;0.00;0.00;0.62;0.00;0.00;0.62;7.33;6.40;;;22.40;23.80;;;;;;2261235;61;20417;-64
2024/03/13 00:56:45;0.00;0.00;0.62;0.00;0.00;0.62;7.20;6.40;;;22.40;23.80;;;;;;2264248;61;20936;-64
2024/03/13 00:59:30;0.00;0.00;0.62;0.00;0.00;0.62;6.27;5.67;;;22.40;23.80;;;;;;2781560;45;20337;-65
2024/03/13 01:02:15;0.00;0.00;0.62;0.00;0.00;0.62;7.90;6.87;;;22.40;23.80;;;;;;2260223;61;20840;-64
2024/03/13 01:05:00;0.00;0.00;0.62;0.00;0.00;0.62;7.43;6.27;;;22.40;23.80;;;;;;2261283;61;20441;-64
2024/03/13 01:07:49;0.00;0.00;0.62;0.00;0.00;0.62;6.80;6.10;;;22.40;23.80;;;;;;2264508;61;20348;-65
2024/03/13 01:10:33;0.00;0.00;0.62;0.00;0.00;0.62;7.67;6.00;;;22.30;23.70;;;;;;2264147;61;20422;-64
2024/03/13 01:13:19;0.00;0.00;0.62;0.00;0.00;0.62;6.63;5.80;;;22.30;23.70;;;;;;2264359;61;20387;-65
2024/03/13 01:16:07;0.00;0.00;0.62;0.00;0.00;0.62;7.47;6.73;;;22.30;23.70;;;;;;2264206;61;20948;-65
2024/03/13 01:18:52;0.00;0.00;0.62;0.00;0.00;0.62;7.67;6.70;;;22.30;23.70;;;;;;2264371;61;20395;-65
2024/03/13 01:21:37;0.00;0.00;0.62;0.00;0.00;0.62;7.57;6.20;;;22.30;23.70;;;;;;2787512;45;20924;-64
2024/03/13 01:24:23;0.00;0.00;0.62;0.00;0.00;0.62;6.83;5.80;;;22.30;23.80;;;;;;2264343;61;20360;-64
2024/03/13 01:27:07;0.00;0.00;0.62;0.00;0.00;0.62;6.43;5.60;;;22.40;23.80;;;;;;2264090;61;20368;-64
2024/03/13 01:29:52;0.00;0.00;0.62;0.00;0.00;0.62;8.30;7.00;;;22.40;23.80;;;;;;2264275;61;20360;-66
2024/03/13 01:32:38;0.00;0.00;0.62;0.00;0.00;0.62;6.43;5.63;;;22.40;23.80;;;;;;2264125;61;20364;-64
2024/03/13 01:35:23;0.00;0.00;0.62;0.00;0.00;0.62;6.40;5.77;;;22.40;23.80;;;;;;2264048;61;20415;-65
2024/03/13 01:38:08;0.00;0.00;0.62;0.00;0.00;0.62;6.70;6.10;;;22.40;23.80;;;;;;2264190;61;20404;-65
2024/03/13 01:56:27;0.00;0.00;0.62;0.00;0.00;0.62;5.90;5.27;;;22.40;23.70;;;;;;2263982;61;20863;-64
2024/03/13 01:59:23;0.00;0.00;0.62;0.00;0.00;0.62;6.67;5.77;;;22.40;23.70;;;;;;2260871;61;20790;-64
2024/03/13 02:02:24;0.00;0.00;0.62;0.00;0.00;0.62;6.20;5.60;;;22.40;23.70;;;;;;2263953;61;20414;-65
2024/03/13 02:05:09;0.00;0.00;0.62;0.00;0.00;0.62;5.40;4.83;;;22.40;23.70;;;;;;2264118;61;20429;-65
2024/03/13 02:07:54;0.00;0.00;0.62;0.00;0.00;0.62;7.03;5.33;;;22.40;23.70;;;;;;2274189;58;20892;-64
2024/03/13 02:10:40;0.00;0.00;0.62;0.00;0.00;0.62;6.23;5.07;;;22.40;23.70;;;;;;2264193;61;20394;-65
2024/03/13 02:13:26;0.00;0.00;0.62;0.00;0.00;0.62;4.80;4.33;;;22.40;23.70;;;;;;2269446;58;20360;-63
2024/03/13 02:16:11;0.00;0.00;0.62;0.00;0.00;0.62;5.73;5.17;;;22.40;23.70;;;;;;2264266;61;20388;-64
2024/03/13 02:18:58;0.00;0.00;0.62;0.00;0.00;0.62;5.93;5.33;;;22.40;23.70;;;;;;2264070;61;20352;-65
2024/03/13 02:21:47;0.00;0.00;0.62;0.00;0.00;0.62;6.10;5.13;;;22.40;23.70;;;;;;2263487;61;20900;-64
2024/03/13 02:24:33;0.00;0.00;0.62;0.00;0.00;0.62;6.30;5.23;;;22.40;23.70;;;;;;2263931;61;20392;-65
2024/03/13 02:27:18;0.00;0.00;0.62;0.00;0.00;0.62;5.30;4.50;;;22.40;23.60;;;;;;2255466;61;20344;-66
2024/03/13 02:30:05;0.00;0.00;0.62;0.00;0.00;0.62;7.33;4.50;;;22.40;23.60;;;;;;2257960;61;20426;-64
2024/03/13 02:32:50;0.00;0.00;0.62;0.00;0.00;0.62;8.60;5.10;;;22.40;23.60;;;;;;2255578;61;20796;-64
2024/03/13 02:35:35;0.00;0.00;0.62;0.00;0.00;0.62;5.67;4.97;;;22.40;23.60;;;;;;2255254;61;20415;-64
2024/03/13 02:38:20;0.00;0.00;0.62;0.00;0.00;0.62;6.27;5.10;;;22.40;23.60;;;;;;2255405;61;20616;-63
2024/03/13 02:41:05;0.00;0.00;0.62;0.00;0.00;0.62;5.53;4.50;;;22.40;23.60;;;;;;2255297;61;20360;-63
2024/03/13 02:43:50;0.00;0.00;0.62;0.00;0.00;0.62;5.53;5.00;;;22.40;23.60;;;;;;2256127;61;20396;-64
2024/03/13 02:46:35;0.00;0.00;0.62;0.00;0.00;0.62;5.40;4.40;;;22.40;23.50;;;;;;2253912;61;20408;-63
2024/03/13 02:49:19;0.00;0.00;0.62;0.00;0.00;0.62;6.43;5.37;;;22.40;23.50;;;;;;2256859;61;20810;-65
2024/03/13 02:52:04;0.00;0.00;0.62;0.00;0.00;0.62;5.30;4.80;;;22.40;23.50;;;;;;2258048;61;20356;-64
2024/03/13 02:54:49;0.00;0.00;0.62;0.00;0.00;0.62;6.07;5.10;;;22.40;23.50;;;;;;2257738;61;20384;-62
2024/03/13 02:57:34;0.00;0.00;0.62;0.00;0.00;0.62;6.10;4.93;;;22.40;23.50;;;;;;2257839;61;20921;-64
2024/03/13 03:00:19;0.00;0.00;0.62;0.00;0.00;0.62;5.00;4.13;;;22.40;23.50;;;;;;2255312;61;20360;-63
2024/03/13 03:03:04;0.00;0.00;0.62;0.00;0.00;0.62;4.63;4.17;;;22.40;23.50;;;;;;2255162;61;20415;-64
2024/03/13 03:05:49;0.00;0.00;0.62;0.00;0.00;0.62;8.30;4.97;;;22.40;23.50;;;;;;2253885;61;20527;-63
2024/03/13 03:08:37;0.00;0.00;0.62;0.00;0.00;0.62;4.50;4.10;;;22.40;23.50;;;;;;2253861;61;20349;-63
2024/03/13 03:11:25;0.00;0.00;0.62;0.00;0.00;0.62;6.10;4.83;;;22.40;23.50;;;;;;2254347;61;20763;-63
2024/03/13 03:14:10;0.00;0.00;0.62;0.00;0.00;0.62;4.63;4.23;;;22.40;23.50;;;;;;2254190;61;20373;-63
2024/03/13 03:16:55;0.00;0.00;0.62;0.00;0.00;0.62;5.20;4.40;;;22.40;23.50;;;;;;2254032;61;20353;-63
2024/03/13 03:19:40;0.00;0.00;0.62;0.00;0.00;0.62;5.03;4.40;;;22.40;23.50;;;;;;2255160;61;20388;-63
2024/03/13 03:22:25;0.00;0.00;0.62;0.00;0.00;0.62;4.80;4.27;;;22.40;23.50;;;;;;2255172;61;20376;-63
2024/03/13 03:25:10;0.00;0.00;0.62;0.00;0.00;0.62;5.90;4.90;;;22.40;23.50;;;;;;2255499;61;20430;-63
2024/03/13 03:27:57;0.00;0.00;0.62;0.00;0.00;0.62;4.73;4.17;;;22.40;23.50;;;;;;2255570;61;20761;-63
2024/03/13 03:30:42;0.00;0.00;0.62;0.00;0.00;0.62;5.30;4.40;;;22.40;23.50;;;;;;2256780;61;20346;-63
2024/03/13 03:33:27;0.00;0.00;0.62;0.00;0.00;0.62;5.40;4.30;;;22.40;23.50;;;;;;2256717;61;20337;-65
2024/03/13 03:36:13;0.00;0.00;0.62;0.00;0.00;0.62;5.47;4.90;;;22.40;23.50;;;;;;2771857;45;20461;-63
2024/03/13 03:38:58;0.00;0.00;0.62;0.00;0.00;0.62;5.07;4.40;;;22.30;23.40;;;;;;2251544;61;20368;-63
2024/03/13 03:41:43;0.00;0.00;0.62;0.00;0.00;0.62;5.00;4.30;;;22.30;23.40;;;;;;2252232;61;20463;-64
2024/03/13 03:44:29;0.00;0.00;0.62;0.00;0.00;0.62;5.47;4.83;;;22.30;23.40;;;;;;2258070;61;20352;-63
2024/03/13 03:47:15;0.00;0.00;0.62;0.00;0.00;0.62;4.30;3.90;;;22.30;23.40;;;;;;2257660;61;20348;-64
2024/03/13 03:50:00;0.00;0.00;0.62;0.00;0.00;0.62;6.23;4.93;;;22.30;23.40;;;;;;2257844;61;20355;-63
2024/03/13 03:52:47;0.00;0.00;0.62;0.00;0.00;0.62;5.23;4.47;;;22.30;23.50;;;;;;2257953;61;20391;-64
2024/03/13 03:55:31;0.00;0.00;0.62;0.00;0.00;0.62;5.30;4.30;;;22.30;23.50;;;;;;2255577;61;20379;-64
2024/03/13 03:58:17;0.00;0.00;0.62;0.00;0.00;0.62;4.63;4.23;;;22.30;23.50;;;;;;2255063;61;21122;-63
2024/03/13 04:01:01;0.00;0.00;0.62;0.00;0.00;0.62;4.60;4.00;;;22.30;23.50;;;;;;2255086;61;20359;-65
2024/03/13 04:03:47;0.00;0.00;0.62;0.00;0.00;0.62;4.97;4.43;;;22.30;23.50;;;;;;2254671;61;20399;-64
2024/03/13 04:06:32;0.00;0.00;0.62;0.00;0.00;0.62;5.67;4.23;;;22.30;23.50;;;;;;2258643;61;20786;-64
2024/03/13 04:09:19;0.00;0.00;0.62;0.00;0.00;0.62;4.60;4.10;;;22.30;23.50;;;;;;2258688;61;21044;-65
2024/03/13 04:12:04;0.00;0.00;0.62;0.00;0.00;0.62;4.73;3.63;;;22.30;23.50;;;;;;2258360;61;20364;-64
2024/03/13 04:14:48;0.00;0.00;0.62;0.00;0.00;0.62;5.67;4.03;;;22.20;23.40;;;;;;2255791;61;20415;-64
2024/03/13 04:17:33;0.00;0.00;0.62;0.00;0.00;0.62;5.27;3.93;;;22.20;24.00;;;;;;2255867;61;20387;-65
2024/03/13 04:20:20;0.00;0.00;0.62;0.00;0.00;0.62;3.73;3.27;;;22.20;23.50;;;;;;2256688;61;20439;-64
2024/03/13 04:23:07;0.00;0.00;0.62;0.00;0.00;0.62;4.23;3.73;;;22.20;23.40;;;;;;2257205;61;20376;-63
2024/03/13 04:25:52;0.00;0.00;0.62;0.00;0.00;0.62;4.83;4.00;;;22.20;23.50;;;;;;2257817;61;20571;-65
2024/03/13 04:28:37;0.00;0.00;0.62;0.00;0.00;0.62;4.20;3.50;;;22.20;23.50;;;;;;2255768;61;20344;-63
2024/03/13 04:31:24;0.00;0.00;0.62;0.00;0.00;0.62;4.73;3.90;;;22.20;23.50;;;;;;2255962;61;20394;-63
2024/03/13 04:34:10;0.00;0.00;0.62;0.00;0.00;0.62;4.67;3.70;;;22.20;23.50;;;;;;2254617;61;20361;-63
2024/03/13 04:36:54;0.00;0.00;0.62;0.00;0.00;0.62;4.80;3.93;;;22.20;23.50;;;;;;2254438;61;20398;-63
2024/03/13 04:39:39;0.00;0.00;0.62;0.00;0.00;0.62;4.47;3.97;;;22.20;23.50;;;;;;2251954;61;20344;-63
2024/03/13 04:42:24;0.00;0.00;0.62;0.00;0.00;0.62;5.17;4.33;;;22.20;23.50;;;;;;2256451;61;20393;-63
2024/03/13 04:45:10;0.00;0.00;0.62;0.00;0.00;0.62;5.00;4.00;;;22.20;23.50;;;;;;2257226;61;20523;-63
2024/03/13 04:47:54;0.00;0.00;0.62;0.00;0.00;0.62;4.93;4.43;;;22.20;23.50;;;;;;2257005;61;20361;-63
2024/03/13 04:50:39;0.00;0.00;0.62;0.00;0.00;0.62;5.00;3.57;;;22.20;23.50;;;;;;2257247;61;20496;-64
2024/03/13 04:53:24;0.00;0.00;0.62;0.00;0.00;0.62;4.80;3.60;;;22.20;23.50;;;;;;2257233;61;20345;-65
2024/03/13 04:56:11;0.00;0.00;0.62;0.00;0.00;0.62;4.47;3.87;;;22.20;23.50;;;;;;2257020;61;20388;-63
2024/03/13 04:58:57;0.00;0.00;0.62;0.00;0.00;0.62;4.17;3.67;;;22.20;23.50;;;;;;2257141;61;20396;-63
2024/03/13 05:01:42;0.00;0.00;0.62;0.00;0.00;0.62;5.17;4.57;;;22.20;23.50;;;;;;2257240;61;20365;-63
2024/03/13 05:04:27;0.00;0.00;0.62;0.00;0.00;0.62;5.67;4.50;;;22.10;23.80;;;;;;2256918;61;20369;-63
2024/03/13 05:07:12;0.00;0.00;0.62;0.00;0.00;0.62;6.67;4.30;;;22.10;23.50;;;;;;2254464;61;20404;-63
2024/03/13 05:09:59;0.00;0.00;0.62;0.00;0.00;0.62;4.50;3.83;;;22.20;24.10;;;;;;2254515;61;20341;-63
2024/03/13 05:12:43;0.00;0.00;0.62;0.00;0.00;0.62;4.13;3.50;;;22.20;23.60;;;;;;2258648;61;20485;-63
2024/03/13 05:15:28;0.00;0.00;0.62;0.00;0.00;0.62;5.40;4.13;;;22.20;23.50;;;;;;2258226;61;20867;-63
2024/03/13 05:18:13;0.00;0.00;0.62;0.00;0.00;0.62;5.90;4.87;;;22.10;23.50;;;;;;2258104;61;20380;-63
2024/03/13 05:20:58;0.00;0.00;0.62;0.00;0.00;0.62;4.80;3.80;;;22.10;23.50;;;;;;2258244;61;20341;-63
2024/03/13 05:23:43;0.00;0.00;0.62;0.00;0.00;0.62;5.50;4.77;;;22.10;24.00;;;;;;2258408;61;20348;-63
2024/03/13 05:26:28;0.00;0.00;0.62;0.00;0.00;0.62;6.03;4.77;;;22.10;23.50;;;;;;2256968;61;20389;-63
2024/03/13 05:29:14;0.00;0.00;0.62;0.00;0.00;0.62;5.17;4.67;;;22.10;23.50;;;;;;2251577;61;20369;-63
2024/03/13 05:32:01;0.00;0.00;0.62;0.00;0.00;0.62;5.93;4.50;;;22.10;23.50;;;;;;2251732;61;20357;-65
2024/03/13 05:34:46;0.00;0.00;0.62;0.00;0.00;0.62;4.97;4.30;;;22.10;23.50;;;;;;2768344;45;20427;-64
2024/03/13 05:37:31;0.00;0.00;0.62;0.00;0.00;0.62;5.83;5.23;;;22.10;23.50;;;;;;2254175;61;20341;-65
2024/03/13 05:40:19;0.00;0.00;0.62;0.00;0.00;0.62;6.97;5.47;;;22.10;23.50;;;;;;2255616;61;20348;-64
2024/03/13 05:43:04;0.00;0.00;0.62;0.00;0.00;0.62;6.30;5.40;;;22.10;23.50;;;;;;2255746;61;20951;-64
2024/03/13 05:45:49;0.00;0.00;0.62;0.00;0.00;0.62;7.07;5.87;;;22.10;23.50;;;;;;2255590;61;20387;-64
2024/03/13 05:48:34;0.00;0.00;0.62;0.00;0.00;0.62;6.30;5.10;;;22.10;23.50;;;;;;2255319;61;20490;-65
2024/03/13 05:51:19;0.00;0.00;0.62;0.00;0.00;0.62;5.90;5.10;;;22.10;23.50;;;;;;2252951;61;20376;-64
2024/03/13 05:54:04;0.00;0.00;0.62;0.00;0.00;0.62;6.80;5.83;;;22.00;23.40;;;;;;2255553;61;20909;-65
2024/03/13 05:56:49;0.00;0.00;0.62;0.00;0.00;0.62;7.43;6.63;;;22.10;23.50;;;;;;2255481;61;20468;-65
2024/03/13 05:59:33;0.00;0.00;0.62;0.00;0.00;0.62;8.00;6.63;;;22.00;23.40;;;;;;2255603;61;20770;-65
2024/03/13 06:02:18;0.00;0.00;0.62;0.00;0.00;0.62;8.20;7.17;;;22.00;23.40;;;;;;2255195;61;21032;-65
2024/03/13 06:05:14;0.00;0.00;0.62;0.00;0.00;0.62;8.13;6.53;;;22.00;23.40;;;;;;2255398;61;20388;-64
2024/03/13 06:07:59;0.00;0.00;0.62;0.00;0.00;0.62;9.90;7.80;;;22.00;23.40;;;;;;2256550;61;20404;-65
2024/03/13 06:10:44;0.00;0.00;0.62;0.00;0.00;0.62;11.00;9.53;;;22.00;23.40;;;;;;2256743;61;20450;-64
2024/03/13 06:13:29;0.00;0.00;0.62;0.00;0.00;0.62;9.53;8.53;;;22.00;23.40;;;;;;2251550;61;20429;-64
2024/03/13 06:16:17;0.00;0.00;0.62;0.00;0.00;0.62;12.60;9.60;;;22.00;24.00;;;;;;2251667;61;20392;-65
2024/03/13 06:19:01;0.00;0.00;0.62;0.00;0.00;0.62;11.10;9.63;;;22.00;23.40;;;;;;2251705;61;20357;-64
2024/03/13 06:21:46;0.00;0.00;0.62;0.00;0.00;0.62;12.83;10.10;;;22.00;23.40;;;;;;2251297;61;20381;-65
2024/03/13 06:24:32;0.00;0.00;0.62;0.00;0.00;0.62;14.33;10.67;;;22.00;23.40;;;;;;2255257;61;20368;-64
2024/03/13 06:27:16;0.00;0.00;0.62;0.00;0.00;0.62;14.80;11.67;;;22.00;23.50;;;;;;2258233;61;20756;-65
2024/03/13 06:30:01;0.00;0.00;0.62;0.00;0.00;0.62;14.40;10.97;;;22.00;23.50;;;;;;2258186;61;20390;-65
2024/03/13 06:32:46;0.00;0.00;0.62;0.00;0.00;0.62;14.10;11.40;;;22.00;23.50;;;;;;2257903;61;20763;-65
2024/03/13 06:35:31;0.00;0.00;0.62;0.00;0.00;0.62;13.30;10.60;;;22.00;23.50;;;;;;2258235;61;20434;-64
2024/03/13 06:38:16;0.00;0.00;0.62;0.00;0.00;0.62;13.40;11.70;;;22.00;23.50;;;;;;2255426;61;20759;-67
2024/03/13 06:41:01;0.00;0.00;0.62;0.00;0.00;0.62;13.60;10.10;;;22.00;23.50;;;;;;2258067;61;20368;-64
2024/03/13 06:43:46;0.00;0.00;0.62;0.00;0.00;0.62;12.80;10.87;;;22.00;23.50;;;;;;2257981;61;20758;-64
2024/03/13 06:46:33;0.00;0.00;0.62;0.00;0.00;0.62;10.37;9.27;;;22.00;23.50;;;;;;2257932;61;20442;-64
2024/03/13 06:49:17;0.00;0.00;0.62;0.00;0.00;0.62;12.20;10.27;;;22.00;23.50;;;;;;2258199;61;20438;-64
2024/03/13 06:52:02;0.00;0.00;0.62;0.00;0.00;0.62;13.73;11.37;;;22.00;23.50;;;;;;2255451;61;20348;-65
2024/03/13 06:54:48;0.00;0.00;0.62;0.00;0.00;0.62;13.03;10.43;;;22.00;23.50;;;;;;2257518;61;20384;-65
2024/03/13 06:57:33;0.00;0.00;0.62;0.00;0.00;0.62;13.20;10.40;;;22.00;23.50;;;;;;2256806;61;20417;-66
2024/03/13 07:00:18;0.00;0.00;0.62;0.00;0.00;0.62;13.77;10.73;;;22.00;23.50;;;;;;2256913;61;20906;-64
2024/03/13 07:03:03;0.00;0.00;0.62;0.00;0.00;0.62;12.23;10.40;;;22.00;23.50;;;;;;2253630;61;20611;-64
2024/03/13 07:05:50;0.00;0.00;0.62;0.00;0.00;0.62;13.47;10.33;;;22.00;23.50;;;;;;2254002;61;20934;-64
2024/03/13 07:08:35;0.00;0.00;0.62;0.00;0.00;0.62;14.13;10.47;;;22.00;23.50;;;;;;2254018;61;20429;-65
2024/03/13 07:11:20;0.00;0.00;0.62;0.00;0.00;0.62;12.10;10.80;;;22.00;23.60;;;;;;2253984;61;20831;-64
2024/03/13 07:14:11;0.00;0.00;0.62;0.00;0.00;0.62;12.13;10.93;;;22.00;23.50;;;;;;2254118;61;20372;-64
2024/03/13 07:16:56;0.00;0.00;0.62;0.00;0.00;0.62;14.90;11.63;;;22.00;23.60;;;;;;2254877;61;20420;-65
2024/03/13 07:19:41;0.00;0.00;0.62;0.00;0.00;0.62;12.63;10.77;;;22.00;23.50;;;;;;2253953;61;20772;-65
2024/03/13 07:22:26;0.00;0.00;0.62;0.00;0.00;0.62;12.90;10.50;;;22.00;23.50;;;;;;2253924;61;20430;-65
2024/03/13 07:25:12;0.00;0.00;0.62;0.00;0.00;0.62;12.87;11.30;;;21.90;23.50;;;;;;2258462;61;20393;-65
2024/03/13 07:27:57;0.00;0.00;0.62;0.00;0.00;0.62;15.17;12.53;;;22.00;23.60;;;;;;2253891;61;20753;-64
2024/03/13 07:30:42;0.00;0.00;0.62;0.00;0.00;0.62;16.30;13.23;;;22.00;23.60;;;;;;2248371;61;20402;-64
2024/03/13 07:33:28;0.00;0.00;0.62;0.00;0.00;0.62;13.63;11.30;;;22.00;23.60;;;;;;2253987;61;20445;-64
2024/03/13 07:36:13;0.00;0.00;0.62;0.00;0.00;0.62;14.33;12.40;;;22.00;23.60;;;;;;2251233;61;20412;-64
2024/03/13 07:38:59;0.00;0.00;0.62;0.00;0.00;0.62;13.10;11.70;;;22.00;23.60;;;;;;2255852;61;20805;-64
2024/03/13 07:41:44;0.00;0.00;0.62;0.00;0.00;0.62;15.57;12.73;;;22.00;23.60;;;;;;2257929;61;20491;-64
2024/03/13 07:44:30;0.00;0.00;0.62;0.00;0.00;0.62;14.03;12.27;;;22.00;23.60;;;;;;2257774;61;20367;-65
2024/03/13 07:47:15;0.00;0.00;0.62;0.00;0.00;0.62;14.13;12.00;;;22.00;23.60;;;;;;2257751;61;20799;-65
2024/03/13 07:50:00;0.00;0.00;0.62;0.00;0.00;0.62;15.03;12.20;;;21.90;23.50;;;;;;2257735;61;20367;-64
2024/03/13 07:52:46;0.00;0.00;0.62;0.00;0.00;0.62;14.57;12.10;;;22.00;23.60;;;;;;2257784;61;20360;-64
2024/03/13 07:55:31;0.00;0.00;0.62;0.00;0.00;0.62;13.23;11.50;;;22.00;23.60;;;;;;2257878;61;20419;-64
2024/03/13 07:58:16;0.00;0.00;0.62;0.00;0.00;0.62;14.77;11.63;;;22.00;23.60;;;;;;2255156;61;20344;-64
2024/03/13 08:01:01;0.00;0.00;0.62;0.00;0.00;0.62;14.03;11.50;;;22.00;24.20;;;;;;2256800;61;20388;-65
2024/03/13 08:03:46;0.00;0.00;0.62;0.00;0.00;0.62;13.40;11.90;;;22.00;23.60;;;;;;2256446;61;20385;-67
2024/03/13 08:06:32;0.00;0.00;0.62;0.00;0.00;0.62;13.40;11.43;;;22.00;23.70;;;;;;2256128;61;20396;-64
2024/03/13 08:09:17;0.00;0.00;0.62;0.00;0.00;0.62;13.40;11.70;;;22.00;23.60;;;;;;2257609;61;20356;-64
2024/03/13 08:12:02;0.00;0.00;0.62;0.00;0.00;0.62;13.90;11.73;;;22.00;23.60;;;;;;2257897;61;20510;-64
2024/03/13 08:14:47;0.00;0.00;0.62;0.00;0.00;0.62;13.37;11.07;;;22.00;23.60;;;;;;2257998;61;20391;-65
2024/03/13 08:17:32;0.00;0.00;0.62;0.00;0.00;0.62;13.13;11.37;;;22.00;23.60;;;;;;2257675;61;20410;-64
2024/03/13 08:20:17;0.00;0.00;0.62;0.00;0.00;0.62;14.80;12.50;;;22.00;23.60;;;;;;2257828;61;20348;-64
2024/03/13 08:23:03;0.00;0.00;0.62;0.00;0.00;0.62;15.57;12.17;;;22.00;23.70;;;;;;2256317;61;20407;-64
2024/03/13 08:25:49;0.00;0.00;0.62;0.00;0.00;0.62;13.27;10.70;;;22.00;23.70;;;;;;2256691;61;20442;-64
2024/03/13 08:28:34;0.00;0.00;0.62;0.00;0.00;0.62;11.70;10.10;;;22.00;23.70;;;;;;2256617;61;20393;-64
2024/03/13 08:31:19;0.00;0.00;0.62;0.00;0.00;0.62;12.50;10.37;;;22.00;23.70;;;;;;2256287;61;20372;-65
2024/03/13 08:34:05;0.00;0.00;0.62;0.00;0.00;0.62;12.13;10.50;;;22.10;23.80;;;;;;2256409;61;20389;-64
2024/03/13 08:36:49;0.00;0.00;0.62;0.00;0.00;0.62;13.33;11.27;;;22.10;23.80;;;;;;2253817;61;20848;-64
2024/03/13 08:39:34;0.00;0.00;0.62;0.00;0.00;0.62;11.40;10.20;;;22.10;23.80;;;;;;2771712;45;20330;-64
2024/03/13 08:42:22;0.00;0.00;0.62;0.00;0.00;0.62;14.03;11.27;;;22.10;23.80;;;;;;2253777;61;20365;-65
2024/03/13 08:45:16;0.00;0.00;0.62;0.00;0.00;0.62;12.30;10.50;;;22.10;24.30;;;;;;2254758;61;20387;-66
2024/03/13 08:48:03;0.00;0.00;0.62;0.00;0.00;0.62;11.60;10.40;;;22.10;23.80;;;;;;2258416;61;20428;-64
2024/03/13 08:50:49;0.00;0.00;0.62;0.00;0.00;0.62;11.40;9.73;;;22.10;23.80;;;;;;2257863;61;20743;-64
2024/03/13 08:53:34;0.00;0.00;0.62;0.00;0.00;0.62;9.60;8.60;;;22.10;23.80;;;;;;2254272;61;20407;-65
2024/03/13 08:56:19;0.00;0.00;0.62;0.00;0.00;0.62;10.30;8.43;;;22.10;23.80;;;;;;2254318;61;20443;-64
2024/03/13 08:59:05;0.00;0.00;0.62;0.00;0.00;0.62;11.37;9.77;;;22.10;23.80;;;;;;2254586;61;20369;-64
2024/03/13 09:01:50;0.00;0.00;0.62;0.00;0.00;0.62;11.13;8.77;;;22.10;23.80;;;;;;2768595;45;20812;-64
2024/03/13 09:04:35;0.00;0.00;0.62;0.00;0.00;0.62;12.13;9.00;;;22.20;23.90;;;;;;2257067;61;20399;-64
2024/03/13 09:07:20;0.00;0.00;0.62;0.00;0.00;0.62;10.07;8.50;;;22.20;23.90;;;;;;2258037;61;20360;-64
2024/03/13 09:10:06;0.00;0.00;0.62;0.00;0.00;0.62;10.73;9.63;;;22.20;23.90;;;;;;2255684;61;20892;-65
2024/03/13 09:12:51;0.00;0.00;0.62;0.00;0.00;0.62;10.70;9.07;;;22.20;23.90;;;;;;2255608;61;20356;-64
2024/03/13 09:15:35;0.00;0.00;0.62;0.00;0.00;0.62;9.63;8.17;;;22.20;23.90;;;;;;2255488;61;20801;-65
2024/03/13 09:18:22;0.00;0.00;0.62;0.00;0.00;0.62;10.33;9.23;;;22.20;24.40;;;;;;2256898;61;20436;-64
2024/03/13 09:21:06;0.00;0.00;0.62;0.00;0.00;0.62;8.53;7.63;;;22.20;23.90;;;;;;2257087;61;20443;-63
2024/03/13 09:23:52;0.00;0.00;0.62;0.00;0.00;0.62;9.07;8.17;;;22.20;23.90;;;;;;2568080;45;20607;-63
2024/03/13 09:26:38;0.00;0.00;0.62;0.00;0.00;0.62;8.50;7.60;;;22.20;23.90;;;;;;2251737;61;20416;-63
2024/03/13 09:29:23;0.00;0.00;0.62;0.00;0.00;0.62;10.60;8.57;;;22.20;23.90;;;;;;2251467;61;20365;-63
2024/03/13 09:32:09;0.00;0.00;0.62;0.00;0.00;0.62;9.27;8.37;;;22.20;23.80;;;;;;2251632;61;20349;-64
2024/03/13 09:34:54;0.00;0.00;0.62;0.00;0.00;0.62;9.77;8.77;;;22.20;23.80;;;;;;2251597;61;20385;-65
2024/03/13 09:37:40;0.00;0.00;0.62;0.00;0.00;0.62;8.77;7.87;;;22.20;23.80;;;;;;2253785;61;20361;-64
2024/03/13 09:40:25;0.00;0.00;0.62;0.00;0.00;0.62;8.47;7.00;;;22.30;23.90;;;;;;2254290;61;20381;-63
2024/03/13 09:43:10;0.00;0.00;0.62;0.00;0.00;0.62;9.00;7.80;;;22.30;24.40;;;;;;2254104;61;20431;-64
2024/03/13 09:45:55;0.00;0.00;0.62;0.00;0.00;0.62;8.70;7.57;;;22.30;23.90;;;;;;2257920;61;20384;-64
2024/03/13 09:48:39;0.00;0.00;0.62;0.00;0.00;0.62;8.80;7.10;;;22.30;23.90;;;;;;2255611;61;20345;-63
2024/03/13 09:51:25;0.00;0.00;0.62;0.00;0.00;0.62;9.40;7.43;;;22.30;24.40;;;;;;2255451;61;20403;-64
2024/03/13 09:54:11;0.00;0.00;0.62;0.00;0.00;0.62;9.40;8.40;;;22.30;23.90;;;;;;2258422;61;20344;-63
2024/03/13 09:56:56;0.00;0.00;0.62;0.00;0.00;0.62;9.10;7.80;;;22.30;23.90;;;;;;2258248;61;20750;-65
2024/03/13 09:59:41;0.00;0.00;0.62;0.00;0.00;0.62;7.43;6.70;;;22.30;23.80;;;;;;2256685;61;20361;-63
2024/03/13 10:02:27;0.00;0.00;0.62;0.00;0.00;0.62;8.63;7.73;;;22.30;23.80;;;;;;2254062;61;20510;-63
2024/03/13 10:05:12;0.00;0.00;0.62;0.00;0.00;0.62;8.27;6.50;;;22.30;23.80;;;;;;2254428;61;20902;-63
2024/03/13 10:07:57;0.00;0.00;0.62;0.00;0.00;0.62;7.43;6.30;;;22.30;23.80;;;;;;2254040;61;20801;-66
2024/03/13 10:10:43;0.00;0.00;0.62;0.00;0.00;0.62;8.70;6.67;;;22.30;23.80;;;;;;2251259;61;20365;-65
2024/03/13 10:13:28;0.00;0.00;0.62;0.00;0.00;0.62;9.03;7.00;;;22.30;24.30;;;;;;2254467;61;20400;-63
2024/03/13 10:16:13;0.00;0.00;0.62;0.00;0.00;0.62;7.10;6.40;;;22.30;23.80;;;;;;2258208;61;20419;-64
2024/03/13 10:18:58;0.00;0.00;0.62;0.00;0.00;0.62;6.87;6.10;;;22.30;23.80;;;;;;2258093;61;20464;-63
2024/03/13 10:21:44;0.00;0.00;0.62;0.00;0.00;0.62;9.07;6.70;;;22.30;23.80;;;;;;2258009;61;20364;-63
2024/03/13 10:24:29;0.00;0.00;0.62;0.00;0.00;0.62;7.33;6.50;;;22.30;24.30;;;;;;2255599;61;20396;-64
2024/03/13 10:27:15;0.00;0.00;0.62;0.00;0.00;0.62;6.60;5.90;;;22.30;23.80;;;;;;2255390;61;20482;-64
2024/03/13 10:30:00;0.00;0.00;0.62;0.00;0.00;0.62;8.80;6.87;;;22.30;23.80;;;;;;2255258;61;20387;-63
2024/03/13 10:32:47;0.00;0.00;0.62;0.00;0.00;0.62;7.70;6.93;;;22.30;24.30;;;;;;2255418;61;20923;-64
2024/03/13 10:35:31;0.00;0.00;0.62;0.00;0.00;0.62;7.27;6.53;;;22.30;23.80;;;;;;2255321;61;20472;-64
2024/03/13 10:38:16;0.00;0.00;0.62;0.00;0.00;0.62;7.20;6.00;;;22.30;23.80;;;;;;2255433;61;20911;-64
2024/03/13 10:41:01;0.00;0.00;0.62;0.00;0.00;0.62;6.93;6.00;;;22.30;24.30;;;;;;2255477;61;20359;-64
2024/03/13 10:43:46;0.00;0.00;0.62;0.00;0.00;0.62;6.37;5.53;;;22.30;24.30;;;;;;2254854;61;20380;-63
2024/03/13 10:46:31;0.00;0.00;0.62;0.00;0.00;0.62;6.83;5.90;;;22.40;23.90;;;;;;2255272;61;20388;-65
2024/03/13 10:49:16;0.00;0.00;0.62;0.00;0.00;0.62;6.30;5.67;;;22.40;23.90;;;;;;2255458;61;20391;-64
2024/03/13 10:52:08;0.00;0.00;0.62;0.00;0.00;0.62;8.67;6.27;;;22.40;23.90;;;;;;2255617;61;20465;-64
2024/03/13 10:54:53;0.00;0.00;0.62;0.00;0.00;0.62;6.17;5.57;;;22.40;23.90;;;;;;2257070;61;20408;-64
2024/03/13 10:57:38;0.00;0.00;0.62;0.00;0.00;0.62;6.30;5.40;;;22.40;23.90;;;;;;2256737;61;20340;-65
2024/03/13 11:00:23;0.00;0.00;0.62;0.00;0.00;0.62;7.73;6.20;;;22.40;23.90;;;;;;2256795;61;20357;-63
2024/03/13 11:03:10;0.00;0.00;0.62;0.00;0.00;0.62;5.90;4.93;;;22.40;23.90;;;;;;2256597;61;20381;-65
2024/03/13 11:05:55;0.00;0.00;0.62;0.00;0.00;0.62;5.80;5.20;;;22.40;23.90;;;;;;2256678;61;20985;-64